EW8199 Weather Reports


Display with metric or nautical units.
time (UTC)temp
F
wind
direction
speed
MPH
gust
MPH
rain 1hr
in
rain 24hr
in
rain mn
in
humidity
%
barometer
mb
20200410101552 40 303 5.0 15.0 0.00 0.15 0.00 59 998.3
20200410100044 40 286 5.0 19.0 0.00 0.15 0.00 59 998.3
20200410094604 40 298 5.0 14.0 0.00 0.15 0.00 59 998.3
20200410093106 41 271 7.0 12.0 0.00 0.15 0.00 59 998.2
20200410090033 41 314 5.0 21.0 0.00 0.15 0.00 58 998.2
20200410084550 41 303 8.0 18.0 0.00 0.15 0.15 58 998.0
20200410083136 41 252 5.0 18.0 0.00 0.15 0.15 58 998.0
20200410081526 41 264 6.0 19.0 0.00 0.15 0.15 58 997.7
20200410080431 41 322 7.0 18.0 0.00 0.15 0.15 58 997.6
20200410074523 41 300 9.0 24.0 0.00 0.15 0.15 58 997.6
20200410073037 42 293 6.0 16.0 0.00 0.15 0.15 57 997.6
20200410071527 42 285 8.0 16.0 0.00 0.15 0.15 57 997.4
20200410070032 42 287 6.0 19.0 0.00 0.15 0.15 56 997.3
20200410064520 42 295 11.0 28.0 0.00 0.15 0.15 56 997.4
20200410063042 42 304 10.0 34.0 0.00 0.15 0.15 56 997.5
20200410061548 42 325 8.0 17.0 0.00 0.15 0.15 57 997.7
20200410060040 43 277 8.0 17.0 0.00 0.15 0.15 57 997.4
20200410054537 43 326 8.0 20.0 0.00 0.15 0.15 56 997.5
20200410053017 43 289 5.0 11.0 0.00 0.15 0.15 55 997.5
20200410051515 44 320 7.0 16.0 0.00 0.15 0.15 56 997.4
20200410050006 45 304 4.0 17.0 0.00 0.15 0.15 56 997.4
20200410044514 45 323 8.0 23.0 0.00 0.15 0.15 57 997.3
20200410043211 46 258 8.0 20.0 0.00 0.15 0.15 57 997.6
20200410041741 47 330 7.0 16.0 0.00 0.15 0.15 54 997.6
20200410040109 47 328 8.0 21.0 0.00 0.15 0.15 51 997.7
20200410034748 47 299 7.0 22.0 0.00 0.15 0.15 51 997.3
20200410033150 48 266 5.0 21.0 0.00 0.15 0.15 51 997.2
20200410031635 48 293 7.0 22.0 0.00 0.15 0.15 52 997.3
20200410030221 50 259 12.0 28.0 0.00 0.15 0.15 45 997.4
20200410024642 50 287 5.0 16.0 0.00 0.15 0.15 42 997.2
20200410023220 50 296 4.0 11.0 0.00 0.15 0.15 38 997.2
20200410021650 50 283 2.0 12.0 0.00 0.15 0.15 38 997.1
20200410020131 51 268 2.0 11.0 0.00 0.15 0.15 37 997.2
20200410014730 51 298 1.0 12.0 0.00 0.15 0.15 37 997.3
20200410013129 51 279 0.0 9.0 0.00 0.15 0.15 35 997.2
20200410011621 52 312 3.0 9.0 0.00 0.15 0.15 33 996.9
20200410010138 52 291 2.0 8.0 0.00 0.15 0.15 34 996.6
20200410004601 52 261 1.0 10.0 0.00 0.15 0.15 33 996.6
20200410003113 52 335 1.0 15.0 0.00 0.15 0.15 32 996.4
20200410001546 53 297 3.0 13.0 0.00 0.15 0.15 32 996.2
20200410000128 53 290 2.0 12.0 0.00 0.15 0.15 32 996.1
20200409234600 53 282 2.0 19.0 0.00 0.15 0.15 31 995.9
20200409233112 54 352 1.0 14.0 0.00 0.15 0.15 29 995.7
20200409231611 54 249 3.0 14.0 0.00 0.15 0.15 29 995.5
20200409230133 55 320 3.0 14.0 0.00 0.15 0.15 31 995.2
20200409224553 55 304 2.0 14.0 0.00 0.16 0.15 31 995.1
20200409223127 56 340 2.0 15.0 0.00 0.16 0.15 31 995.0
20200409221605 57 304 2.0 11.0 0.00 0.16 0.15 32 994.6
20200409220157 57 264 1.0 15.0 0.00 0.16 0.15 34 994.3
20200409214548 58 278 3.0 17.0 0.00 0.16 0.15 34 994.0
20200409213045 58 309 1.0 14.0 0.00 0.16 0.15 35 993.9
20200409211612 58 331 3.0 13.0 0.00 0.16 0.15 35 993.5
20200409210108 60 331 4.0 14.0 0.00 0.16 0.15 35 993.3
20200409204737 59 294 6.0 16.0 0.00 0.16 0.15 35 993.2
20200409203059 59 293 9.0 21.0 0.00 0.16 0.15 34 993.1
20200409201557 59 282 6.0 20.0 0.00 0.16 0.15 36 993.1
20200409200129 60 256 8.0 24.0 0.01 0.16 0.15 37 992.6
20200409194608 60 324 8.0 23.0 0.01 0.16 0.15 36 992.6
20200409193130 61 341 10.0 36.0 0.01 0.16 0.15 39 992.2
20200409191548 60 201 7.0 24.0 0.02 0.16 0.15 46 991.7
20200409190052 59 249 11.0 28.0 0.02 0.16 0.15 49 991.6
20200409184642 59 224 10.0 26.0 0.01 0.15 0.14 59 991.4
20200409183107 56 283 8.0 20.0 0.10 0.15 0.14 66 991.3
20200409181538 56 260 8.0 18.0 0.10 0.15 0.14 72 991.3
20200409180242 59 294 11.0 22.0 0.09 0.14 0.13 74 990.7
20200409174602 59 328 8.0 20.0 0.09 0.14 0.13 74 990.0
20200409173042 68 332 8.0 20.0 0.00 0.05 0.04 60 989.3
20200409171617 67 237 8.0 15.0 0.00 0.05 0.04 64 989.0
20200409170057 66 313 4.0 19.0 0.00 0.05 0.04 65 989.1
20200409164533 67 256 3.0 16.0 0.00 0.06 0.04 68 989.2
20200409163023 64 279 5.0 16.0 0.00 0.06 0.04 74 989.6
20200409161533 63 245 6.0 15.0 0.01 0.06 0.04 74 989.9
20200409160035 63 237 4.0 18.0 0.01 0.06 0.04 76 990.4
20200409154512 62 281 4.0 14.0 0.01 0.06 0.04 78 990.6
20200409153010 61 212 9.0 16.0 0.01 0.06 0.04 78 991.0
20200409151512 61 190 5.0 13.0 0.01 0.06 0.04 80 991.1
20200409150007 60 224 6.0 11.0 0.00 0.05 0.03 81 991.4
20200409144728 59 238 5.0 10.0 0.00 0.05 0.03 81 991.8
20200409143201 59 239 4.0 8.0 0.00 0.05 0.03 82 992.1
20200409141605 58 272 1.0 5.0 0.00 0.05 0.03 87 992.3
20200409140156 56 233 0.0 0.0 0.00 0.05 0.03 90 992.9
20200409134649 53 246 0.0 5.0 0.01 0.05 0.03 91 993.0
20200409133136 51 156 3.0 9.0 0.03 0.05 0.03 91 993.2
20200409131622 50 227 2.0 7.0 0.03 0.05 0.03 89 994.4
20200409130052 50 184 3.0 8.0 0.03 0.05 0.03 89 995.3
20200409124612 50 242 2.0 6.0 0.03 0.05 0.03 89 995.9
20200409123051 50 181 3.0 7.0 0.00 0.02 0.00 89 996.1
20200409121602 50 297 1.0 4.0 0.00 0.02 0.00 89 997.5
20200409120123 49 229 2.0 5.0 0.00 0.02 0.00 89 997.5
20200409114552 49 222 1.0 4.0 0.00 0.02 0.00 89 997.6
20200409113035 48 208 2.0 6.0 0.00 0.02 0.00 89 997.9
20200409111531 48 202 0.0 2.0 0.00 0.02 0.00 89 998.2
20200409110047 48 198 1.0 4.0 0.00 0.02 0.00 89 998.0
20200409104520 48 192 1.0 4.0 0.00 0.02 0.00 89 998.3